sensor_id;sensor_type;location;lat;lon;timestamp;P1;durP1;ratioP1;P2;durP2;ratioP2
32932;SDS011;19444;50.518;10.870;2023-05-10T00:02:03;3.55;;;2.45;;
32932;SDS011;19444;50.518;10.870;2023-05-10T00:05:00;5.00;;;2.42;;
32932;SDS011;19444;50.518;10.870;2023-05-10T00:07:57;6.38;;;2.97;;
32932;SDS011;19444;50.518;10.870;2023-05-10T00:10:54;3.42;;;2.55;;
32932;SDS011;19444;50.518;10.870;2023-05-10T00:13:51;2.83;;;2.30;;
32932;SDS011;19444;50.518;10.870;2023-05-10T00:16:48;5.68;;;2.67;;
32932;SDS011;19444;50.518;10.870;2023-05-10T00:19:45;4.72;;;2.47;;
32932;SDS011;19444;50.518;10.870;2023-05-10T00:22:42;3.70;;;2.50;;
32932;SDS011;19444;50.518;10.870;2023-05-10T00:25:39;4.07;;;2.42;;
32932;SDS011;19444;50.518;10.870;2023-05-10T00:28:36;4.80;;;2.28;;
32932;SDS011;19444;50.518;10.870;2023-05-10T00:31:33;4.45;;;2.92;;
32932;SDS011;19444;50.518;10.870;2023-05-10T00:34:31;4.00;;;2.70;;
32932;SDS011;19444;50.518;10.870;2023-05-10T00:37:28;3.65;;;2.30;;
32932;SDS011;19444;50.518;10.870;2023-05-10T00:40:25;3.40;;;2.72;;
32932;SDS011;19444;50.518;10.870;2023-05-10T00:43:22;3.60;;;2.53;;
32932;SDS011;19444;50.518;10.870;2023-05-10T00:46:19;5.50;;;2.75;;
32932;SDS011;19444;50.518;10.870;2023-05-10T00:49:18;3.38;;;2.58;;
32932;SDS011;19444;50.518;10.870;2023-05-10T00:52:16;3.15;;;2.85;;
32932;SDS011;19444;50.518;10.870;2023-05-10T00:55:13;3.88;;;2.33;;
32932;SDS011;19444;50.518;10.870;2023-05-10T00:58:10;3.42;;;2.50;;
32932;SDS011;19444;50.518;10.870;2023-05-10T01:01:08;5.05;;;2.75;;
32932;SDS011;19444;50.518;10.870;2023-05-10T01:04:06;6.25;;;2.63;;
32932;SDS011;19444;50.518;10.870;2023-05-10T01:07:05;3.72;;;2.40;;
32932;SDS011;19444;50.518;10.870;2023-05-10T01:10:02;3.95;;;2.58;;
32932;SDS011;19444;50.518;10.870;2023-05-10T01:12:59;3.28;;;2.45;;
32932;SDS011;19444;50.518;10.870;2023-05-10T01:15:56;4.70;;;2.53;;
32932;SDS011;19444;50.518;10.870;2023-05-10T01:18:54;3.83;;;2.33;;
32932;SDS011;19444;50.518;10.870;2023-05-10T01:21:55;4.75;;;2.88;;
32932;SDS011;19444;50.518;10.870;2023-05-10T01:29:14;3.72;;;2.75;;
32932;SDS011;19444;50.518;10.870;2023-05-10T01:39:11;4.47;;;2.70;;
32932;SDS011;19444;50.518;10.870;2023-05-10T01:42:21;4.25;;;2.22;;
32932;SDS011;19444;50.518;10.870;2023-05-10T01:45:37;5.28;;;2.60;;
32932;SDS011;19444;50.518;10.870;2023-05-10T01:48:47;3.72;;;2.65;;
32932;SDS011;19444;50.518;10.870;2023-05-10T01:51:49;3.78;;;2.67;;
32932;SDS011;19444;50.518;10.870;2023-05-10T01:54:58;4.43;;;2.65;;
32932;SDS011;19444;50.518;10.870;2023-05-10T01:58:11;4.25;;;2.20;;
32932;SDS011;19444;50.518;10.870;2023-05-10T02:01:13;5.50;;;2.55;;
32932;SDS011;19444;50.518;10.870;2023-05-10T02:04:11;4.18;;;2.85;;
32932;SDS011;19444;50.518;10.870;2023-05-10T02:07:12;3.35;;;2.63;;
32932;SDS011;19444;50.518;10.870;2023-05-10T02:10:12;5.30;;;3.38;;
32932;SDS011;19444;50.518;10.870;2023-05-10T02:13:10;3.20;;;2.47;;
32932;SDS011;19444;50.518;10.870;2023-05-10T02:16:08;3.45;;;2.67;;
32932;SDS011;19444;50.518;10.870;2023-05-10T02:19:06;4.47;;;3.30;;
32932;SDS011;19444;50.518;10.870;2023-05-10T02:22:05;7.13;;;2.65;;
32932;SDS011;19444;50.518;10.870;2023-05-10T02:25:04;3.97;;;3.47;;
32932;SDS011;19444;50.518;10.870;2023-05-10T02:28:03;4.78;;;2.78;;
32932;SDS011;19444;50.518;10.870;2023-05-10T02:31:02;3.80;;;2.70;;
32932;SDS011;19444;50.518;10.870;2023-05-10T02:33:59;4.55;;;2.88;;
32932;SDS011;19444;50.518;10.870;2023-05-10T02:36:58;5.60;;;3.03;;
32932;SDS011;19444;50.518;10.870;2023-05-10T02:39:58;4.18;;;3.00;;
32932;SDS011;19444;50.518;10.870;2023-05-10T02:42:56;2.58;;;1.98;;
32932;SDS011;19444;50.518;10.870;2023-05-10T02:45:55;5.85;;;3.13;;
32932;SDS011;19444;50.518;10.870;2023-05-10T02:48:52;4.50;;;3.30;;
32932;SDS011;19444;50.518;10.870;2023-05-10T02:51:50;3.70;;;2.58;;
32932;SDS011;19444;50.518;10.870;2023-05-10T02:54:54;4.97;;;3.08;;
32932;SDS011;19444;50.518;10.870;2023-05-10T02:57:56;3.65;;;2.95;;
32932;SDS011;19444;50.518;10.870;2023-05-10T03:00:56;6.75;;;3.55;;
32932;SDS011;19444;50.518;10.870;2023-05-10T03:03:53;4.00;;;3.40;;
32932;SDS011;19444;50.518;10.870;2023-05-10T03:06:50;4.30;;;3.50;;
32932;SDS011;19444;50.518;10.870;2023-05-10T03:09:50;4.10;;;3.70;;
32932;SDS011;19444;50.518;10.870;2023-05-10T03:16:15;7.32;;;3.42;;
32932;SDS011;19444;50.518;10.870;2023-05-10T03:22:31;5.05;;;3.63;;
32932;SDS011;19444;50.518;10.870;2023-05-10T03:25:32;5.95;;;4.20;;
32932;SDS011;19444;50.518;10.870;2023-05-10T03:28:30;4.78;;;3.85;;
32932;SDS011;19444;50.518;10.870;2023-05-10T03:31:30;4.60;;;4.00;;
32932;SDS011;19444;50.518;10.870;2023-05-10T03:34:26;5.22;;;3.65;;
32932;SDS011;19444;50.518;10.870;2023-05-10T03:37:27;6.57;;;3.78;;
32932;SDS011;19444;50.518;10.870;2023-05-10T03:40:24;5.95;;;3.95;;
32932;SDS011;19444;50.518;10.870;2023-05-10T03:46:21;6.72;;;4.78;;
32932;SDS011;19444;50.518;10.870;2023-05-10T03:49:18;5.57;;;4.07;;
32932;SDS011;19444;50.518;10.870;2023-05-10T03:52:15;6.75;;;4.43;;
32932;SDS011;19444;50.518;10.870;2023-05-10T03:55:12;6.80;;;4.25;;
32932;SDS011;19444;50.518;10.870;2023-05-10T03:58:12;6.53;;;4.50;;
32932;SDS011;19444;50.518;10.870;2023-05-10T04:01:09;6.25;;;4.45;;
32932;SDS011;19444;50.518;10.870;2023-05-10T04:04:06;7.45;;;4.60;;
32932;SDS011;19444;50.518;10.870;2023-05-10T04:07:03;5.75;;;5.07;;
32932;SDS011;19444;50.518;10.870;2023-05-10T04:10:00;6.00;;;4.63;;
32932;SDS011;19444;50.518;10.870;2023-05-10T04:12:57;6.55;;;4.63;;
32932;SDS011;19444;50.518;10.870;2023-05-10T04:15:54;6.65;;;4.82;;
32932;SDS011;19444;50.518;10.870;2023-05-10T04:18:51;7.85;;;5.35;;
32932;SDS011;19444;50.518;10.870;2023-05-10T04:21:48;5.20;;;4.32;;
32932;SDS011;19444;50.518;10.870;2023-05-10T04:24:45;4.97;;;4.28;;
32932;SDS011;19444;50.518;10.870;2023-05-10T04:27:42;5.97;;;4.60;;
32932;SDS011;19444;50.518;10.870;2023-05-10T04:30:39;5.78;;;3.95;;
32932;SDS011;19444;50.518;10.870;2023-05-10T04:33:36;8.10;;;5.50;;
32932;SDS011;19444;50.518;10.870;2023-05-10T04:36:33;8.20;;;5.40;;
32932;SDS011;19444;50.518;10.870;2023-05-10T04:39:31;8.13;;;4.55;;
32932;SDS011;19444;50.518;10.870;2023-05-10T04:42:28;8.27;;;5.95;;
32932;SDS011;19444;50.518;10.870;2023-05-10T04:45:25;6.13;;;4.85;;
32932;SDS011;19444;50.518;10.870;2023-05-10T04:48:22;5.60;;;4.35;;
32932;SDS011;19444;50.518;10.870;2023-05-10T04:51:19;6.85;;;4.80;;
32932;SDS011;19444;50.518;10.870;2023-05-10T04:54:16;7.30;;;5.10;;
32932;SDS011;19444;50.518;10.870;2023-05-10T04:57:13;7.40;;;4.80;;
32932;SDS011;19444;50.518;10.870;2023-05-10T05:00:11;6.00;;;3.85;;
32932;SDS011;19444;50.518;10.870;2023-05-10T05:03:08;4.90;;;3.58;;
32932;SDS011;19444;50.518;10.870;2023-05-10T05:06:06;4.25;;;3.25;;
32932;SDS011;19444;50.518;10.870;2023-05-10T05:09:03;3.75;;;2.30;;
32932;SDS011;19444;50.518;10.870;2023-05-10T05:12:00;4.90;;;3.75;;
32932;SDS011;19444;50.518;10.870;2023-05-10T05:14:57;7.07;;;3.75;;
32932;SDS011;19444;50.518;10.870;2023-05-10T05:17:54;5.75;;;3.70;;
32932;SDS011;19444;50.518;10.870;2023-05-10T05:20:51;4.50;;;3.65;;
32932;SDS011;19444;50.518;10.870;2023-05-10T05:23:48;5.10;;;4.07;;
32932;SDS011;19444;50.518;10.870;2023-05-10T05:26:45;5.03;;;3.78;;
32932;SDS011;19444;50.518;10.870;2023-05-10T05:29:42;4.05;;;3.65;;
32932;SDS011;19444;50.518;10.870;2023-05-10T05:32:39;4.05;;;3.20;;
32932;SDS011;19444;50.518;10.870;2023-05-10T05:35:36;4.72;;;3.10;;
32932;SDS011;19444;50.518;10.870;2023-05-10T05:38:33;5.35;;;3.42;;
32932;SDS011;19444;50.518;10.870;2023-05-10T05:41:30;6.15;;;2.92;;
32932;SDS011;19444;50.518;10.870;2023-05-10T05:44:27;7.57;;;3.70;;
32932;SDS011;19444;50.518;10.870;2023-05-10T05:47:25;3.17;;;2.88;;
32932;SDS011;19444;50.518;10.870;2023-05-10T05:50:21;2.97;;;1.90;;
32932;SDS011;19444;50.518;10.870;2023-05-10T05:53:18;3.63;;;2.95;;
32932;SDS011;19444;50.518;10.870;2023-05-10T05:56:15;3.85;;;3.33;;
32932;SDS011;19444;50.518;10.870;2023-05-10T05:59:13;4.15;;;3.60;;
32932;SDS011;19444;50.518;10.870;2023-05-10T06:02:10;3.17;;;1.77;;
32932;SDS011;19444;50.518;10.870;2023-05-10T06:05:07;4.72;;;2.40;;
32932;SDS011;19444;50.518;10.870;2023-05-10T06:08:05;1.80;;;1.42;;
32932;SDS011;19444;50.518;10.870;2023-05-10T06:11:02;2.72;;;1.58;;
32932;SDS011;19444;50.518;10.870;2023-05-10T06:14:00;2.65;;;1.92;;
32932;SDS011;19444;50.518;10.870;2023-05-10T06:16:57;3.80;;;2.35;;
32932;SDS011;19444;50.518;10.870;2023-05-10T06:19:56;2.05;;;1.60;;
32932;SDS011;19444;50.518;10.870;2023-05-10T06:22:52;1.70;;;1.30;;
32932;SDS011;19444;50.518;10.870;2023-05-10T06:25:49;1.95;;;1.40;;
32932;SDS011;19444;50.518;10.870;2023-05-10T06:28:46;2.42;;;1.10;;
32932;SDS011;19444;50.518;10.870;2023-05-10T06:31:43;1.75;;;1.00;;
32932;SDS011;19444;50.518;10.870;2023-05-10T06:34:40;1.15;;;0.80;;
32932;SDS011;19444;50.518;10.870;2023-05-10T06:37:39;1.90;;;0.63;;
32932;SDS011;19444;50.518;10.870;2023-05-10T06:40:36;0.90;;;0.60;;
32932;SDS011;19444;50.518;10.870;2023-05-10T06:43:33;1.20;;;0.47;;
32932;SDS011;19444;50.518;10.870;2023-05-10T06:46:30;0.70;;;0.47;;
32932;SDS011;19444;50.518;10.870;2023-05-10T06:49:27;1.60;;;0.70;;
32932;SDS011;19444;50.518;10.870;2023-05-10T06:52:24;1.23;;;0.50;;
32932;SDS011;19444;50.518;10.870;2023-05-10T06:55:21;2.15;;;0.55;;
32932;SDS011;19444;50.518;10.870;2023-05-10T06:58:17;0.77;;;0.40;;
32932;SDS011;19444;50.518;10.870;2023-05-10T07:01:14;0.55;;;0.40;;
32932;SDS011;19444;50.518;10.870;2023-05-10T07:04:11;0.70;;;0.20;;
32932;SDS011;19444;50.518;10.870;2023-05-10T07:07:09;1.65;;;0.35;;
32932;SDS011;19444;50.518;10.870;2023-05-10T07:10:07;0.60;;;0.30;;
32932;SDS011;19444;50.518;10.870;2023-05-10T07:13:04;0.50;;;0.20;;
32932;SDS011;19444;50.518;10.870;2023-05-10T07:16:01;0.50;;;0.20;;
32932;SDS011;19444;50.518;10.870;2023-05-10T07:18:59;1.30;;;0.28;;
32932;SDS011;19444;50.518;10.870;2023-05-10T07:21:55;0.38;;;0.20;;
32932;SDS011;19444;50.518;10.870;2023-05-10T07:24:52;0.20;;;0.10;;
32932;SDS011;19444;50.518;10.870;2023-05-10T07:27:50;0.40;;;0.17;;
32932;SDS011;19444;50.518;10.870;2023-05-10T07:30:47;1.33;;;0.20;;
32932;SDS011;19444;50.518;10.870;2023-05-10T07:33:44;0.20;;;0.10;;
32932;SDS011;19444;50.518;10.870;2023-05-10T07:36:41;0.60;;;0.10;;
32932;SDS011;19444;50.518;10.870;2023-05-10T07:39:38;0.20;;;0.10;;
32932;SDS011;19444;50.518;10.870;2023-05-10T07:42:35;0.40;;;0.15;;
32932;SDS011;19444;50.518;10.870;2023-05-10T07:45:32;0.10;;;0.10;;
32932;SDS011;19444;50.518;10.870;2023-05-10T07:48:30;0.57;;;0.10;;
32932;SDS011;19444;50.518;10.870;2023-05-10T07:51:27;0.52;;;0.10;;
32932;SDS011;19444;50.518;10.870;2023-05-10T07:54:24;1.20;;;0.32;;
32932;SDS011;19444;50.518;10.870;2023-05-10T07:57:21;0.20;;;0.10;;
32932;SDS011;19444;50.518;10.870;2023-05-10T08:00:19;0.10;;;0.10;;
32932;SDS011;19444;50.518;10.870;2023-05-10T08:03:16;0.10;;;0.10;;
32932;SDS011;19444;50.518;10.870;2023-05-10T08:06:17;0.30;;;0.10;;
32932;SDS011;19444;50.518;10.870;2023-05-10T08:09:14;0.20;;;0.10;;
32932;SDS011;19444;50.518;10.870;2023-05-10T08:12:12;0.20;;;0.13;;
32932;SDS011;19444;50.518;10.870;2023-05-10T08:15:09;0.30;;;0.20;;
32932;SDS011;19444;50.518;10.870;2023-05-10T08:18:06;0.80;;;0.20;;
32932;SDS011;19444;50.518;10.870;2023-05-10T08:21:03;0.30;;;0.20;;
32932;SDS011;19444;50.518;10.870;2023-05-10T08:24:01;1.30;;;0.30;;
32932;SDS011;19444;50.518;10.870;2023-05-10T08:26:58;1.13;;;0.40;;
32932;SDS011;19444;50.518;10.870;2023-05-10T08:29:55;0.77;;;0.52;;
32932;SDS011;19444;50.518;10.870;2023-05-10T08:32:51;1.45;;;0.40;;
32932;SDS011;19444;50.518;10.870;2023-05-10T08:35:48;1.00;;;0.30;;
32932;SDS011;19444;50.518;10.870;2023-05-10T08:38:45;0.50;;;0.30;;
32932;SDS011;19444;50.518;10.870;2023-05-10T08:41:44;0.88;;;0.40;;
32932;SDS011;19444;50.518;10.870;2023-05-10T08:44:42;0.68;;;0.40;;
32932;SDS011;19444;50.518;10.870;2023-05-10T08:47:40;0.80;;;0.50;;
32932;SDS011;19444;50.518;10.870;2023-05-10T08:50:38;0.50;;;0.32;;
32932;SDS011;19444;50.518;10.870;2023-05-10T08:53:37;1.13;;;0.50;;
32932;SDS011;19444;50.518;10.870;2023-05-10T08:56:34;0.65;;;0.50;;
32932;SDS011;19444;50.518;10.870;2023-05-10T08:59:32;0.60;;;0.47;;
32932;SDS011;19444;50.518;10.870;2023-05-10T09:02:29;1.63;;;0.50;;
32932;SDS011;19444;50.518;10.870;2023-05-10T09:05:27;0.60;;;0.40;;
32932;SDS011;19444;50.518;10.870;2023-05-10T09:08:24;0.73;;;0.40;;
32932;SDS011;19444;50.518;10.870;2023-05-10T09:11:22;0.85;;;0.60;;
32932;SDS011;19444;50.518;10.870;2023-05-10T09:14:20;0.80;;;0.40;;
32932;SDS011;19444;50.518;10.870;2023-05-10T09:17:19;0.63;;;0.55;;
32932;SDS011;19444;50.518;10.870;2023-05-10T09:20:17;1.00;;;0.55;;
32932;SDS011;19444;50.518;10.870;2023-05-10T09:23:14;1.73;;;0.60;;
32932;SDS011;19444;50.518;10.870;2023-05-10T09:26:11;2.13;;;0.85;;
32932;SDS011;19444;50.518;10.870;2023-05-10T09:29:09;1.38;;;0.90;;
32932;SDS011;19444;50.518;10.870;2023-05-10T09:32:06;1.20;;;0.70;;
32932;SDS011;19444;50.518;10.870;2023-05-10T09:35:06;1.33;;;1.02;;
32932;SDS011;19444;50.518;10.870;2023-05-10T09:38:04;1.30;;;0.93;;
32932;SDS011;19444;50.518;10.870;2023-05-10T09:41:01;3.05;;;1.38;;
32932;SDS011;19444;50.518;10.870;2023-05-10T09:43:58;1.38;;;1.00;;
32932;SDS011;19444;50.518;10.870;2023-05-10T09:46:55;1.25;;;0.90;;
32932;SDS011;19444;50.518;10.870;2023-05-10T09:49:53;1.20;;;0.88;;
32932;SDS011;19444;50.518;10.870;2023-05-10T09:55:55;1.75;;;0.65;;
32932;SDS011;19444;50.518;10.870;2023-05-10T09:59:01;2.90;;;0.88;;
32932;SDS011;19444;50.518;10.870;2023-05-10T10:01:59;1.40;;;0.70;;
32932;SDS011;19444;50.518;10.870;2023-05-10T10:04:57;0.75;;;0.70;;
32932;SDS011;19444;50.518;10.870;2023-05-10T10:07:57;1.08;;;0.90;;
32932;SDS011;19444;50.518;10.870;2023-05-10T10:10:55;2.25;;;0.70;;
32932;SDS011;19444;50.518;10.870;2023-05-10T10:13:52;2.13;;;0.70;;
32932;SDS011;19444;50.518;10.870;2023-05-10T10:16:49;2.80;;;0.70;;
32932;SDS011;19444;50.518;10.870;2023-05-10T10:20:03;1.73;;;1.00;;
32932;SDS011;19444;50.518;10.870;2023-05-10T10:23:01;1.60;;;1.15;;
32932;SDS011;19444;50.518;10.870;2023-05-10T10:25:58;1.55;;;1.08;;
32932;SDS011;19444;50.518;10.870;2023-05-10T10:32:42;1.92;;;1.50;;
32932;SDS011;19444;50.518;10.870;2023-05-10T10:36:23;2.65;;;1.63;;
32932;SDS011;19444;50.518;10.870;2023-05-10T10:39:23;2.80;;;1.60;;
32932;SDS011;19444;50.518;10.870;2023-05-10T10:43:20;1.90;;;1.58;;
32932;SDS011;19444;50.518;10.870;2023-05-10T10:49:14;1.67;;;1.25;;
32932;SDS011;19444;50.518;10.870;2023-05-10T10:52:13;3.00;;;1.85;;
32932;SDS011;19444;50.518;10.870;2023-05-10T10:55:15;1.65;;;1.38;;
32932;SDS011;19444;50.518;10.870;2023-05-10T10:58:31;1.80;;;1.20;;
32932;SDS011;19444;50.518;10.870;2023-05-10T11:01:35;1.50;;;1.10;;
32932;SDS011;19444;50.518;10.870;2023-05-10T11:04:41;1.52;;;1.00;;
32932;SDS011;19444;50.518;10.870;2023-05-10T11:07:55;1.30;;;0.80;;
32932;SDS011;19444;50.518;10.870;2023-05-10T11:14:04;1.58;;;1.10;;
32932;SDS011;19444;50.518;10.870;2023-05-10T11:17:21;2.45;;;1.05;;
32932;SDS011;19444;50.518;10.870;2023-05-10T11:20:26;2.60;;;1.00;;
32932;SDS011;19444;50.518;10.870;2023-05-10T11:23:30;1.73;;;1.13;;
32932;SDS011;19444;50.518;10.870;2023-05-10T11:26:36;1.40;;;1.00;;
32932;SDS011;19444;50.518;10.870;2023-05-10T11:29:33;2.13;;;1.23;;
32932;SDS011;19444;50.518;10.870;2023-05-10T11:32:30;1.95;;;1.50;;
32932;SDS011;19444;50.518;10.870;2023-05-10T11:35:27;1.73;;;1.13;;
32932;SDS011;19444;50.518;10.870;2023-05-10T11:38:24;1.65;;;1.10;;
32932;SDS011;19444;50.518;10.870;2023-05-10T11:41:22;2.17;;;1.55;;
32932;SDS011;19444;50.518;10.870;2023-05-10T11:44:20;2.95;;;2.00;;
32932;SDS011;19444;50.518;10.870;2023-05-10T11:47:17;5.20;;;2.05;;
32932;SDS011;19444;50.518;10.870;2023-05-10T11:50:14;3.63;;;2.05;;
32932;SDS011;19444;50.518;10.870;2023-05-10T11:53:12;6.72;;;3.58;;
32932;SDS011;19444;50.518;10.870;2023-05-10T11:56:10;7.05;;;3.80;;
32932;SDS011;19444;50.518;10.870;2023-05-10T11:59:07;4.10;;;2.35;;
32932;SDS011;19444;50.518;10.870;2023-05-10T12:02:04;3.97;;;1.80;;
32932;SDS011;19444;50.518;10.870;2023-05-10T12:05:02;3.20;;;1.70;;
32932;SDS011;19444;50.518;10.870;2023-05-10T12:08:10;3.92;;;2.15;;
32932;SDS011;19444;50.518;10.870;2023-05-10T12:11:09;4.18;;;2.80;;
32932;SDS011;19444;50.518;10.870;2023-05-10T12:14:07;5.55;;;3.42;;
32932;SDS011;19444;50.518;10.870;2023-05-10T12:17:05;3.78;;;2.92;;
32932;SDS011;19444;50.518;10.870;2023-05-10T12:20:18;5.88;;;4.35;;
32932;SDS011;19444;50.518;10.870;2023-05-10T12:23:17;3.92;;;2.50;;
32932;SDS011;19444;50.518;10.870;2023-05-10T12:26:15;2.88;;;1.83;;
32932;SDS011;19444;50.518;10.870;2023-05-10T12:29:13;3.47;;;2.20;;
32932;SDS011;19444;50.518;10.870;2023-05-10T12:32:12;2.78;;;1.75;;
32932;SDS011;19444;50.518;10.870;2023-05-10T12:35:09;2.17;;;1.58;;
32932;SDS011;19444;50.518;10.870;2023-05-10T12:38:22;2.38;;;1.88;;
32932;SDS011;19444;50.518;10.870;2023-05-10T12:41:34;2.47;;;1.77;;
32932;SDS011;19444;50.518;10.870;2023-05-10T12:44:30;3.47;;;1.88;;
32932;SDS011;19444;50.518;10.870;2023-05-10T12:47:27;2.60;;;1.90;;
32932;SDS011;19444;50.518;10.870;2023-05-10T12:50:25;2.88;;;1.88;;
32932;SDS011;19444;50.518;10.870;2023-05-10T12:53:21;2.45;;;1.58;;
32932;SDS011;19444;50.518;10.870;2023-05-10T12:56:18;2.58;;;1.20;;
32932;SDS011;19444;50.518;10.870;2023-05-10T12:59:16;2.45;;;1.15;;
32932;SDS011;19444;50.518;10.870;2023-05-10T13:02:13;3.45;;;1.13;;
32932;SDS011;19444;50.518;10.870;2023-05-10T13:05:10;2.25;;;1.15;;
32932;SDS011;19444;50.518;10.870;2023-05-10T13:08:09;1.33;;;1.00;;
32932;SDS011;19444;50.518;10.870;2023-05-10T13:11:06;2.30;;;0.90;;
32932;SDS011;19444;50.518;10.870;2023-05-10T13:14:03;2.97;;;1.20;;
32932;SDS011;19444;50.518;10.870;2023-05-10T13:17:00;1.60;;;1.20;;
32932;SDS011;19444;50.518;10.870;2023-05-10T13:19:57;1.83;;;1.00;;
32932;SDS011;19444;50.518;10.870;2023-05-10T13:22:54;1.35;;;1.13;;
32932;SDS011;19444;50.518;10.870;2023-05-10T13:25:51;1.70;;;1.40;;
32932;SDS011;19444;50.518;10.870;2023-05-10T13:28:48;2.60;;;1.40;;
32932;SDS011;19444;50.518;10.870;2023-05-10T13:31:45;1.88;;;1.30;;
32932;SDS011;19444;50.518;10.870;2023-05-10T13:34:42;2.00;;;1.05;;
32932;SDS011;19444;50.518;10.870;2023-05-10T13:37:39;2.05;;;1.25;;
32932;SDS011;19444;50.518;10.870;2023-05-10T13:40:36;2.08;;;1.30;;
32932;SDS011;19444;50.518;10.870;2023-05-10T13:43:33;2.30;;;1.30;;
32932;SDS011;19444;50.518;10.870;2023-05-10T13:46:30;1.85;;;1.45;;
32932;SDS011;19444;50.518;10.870;2023-05-10T13:49:27;1.92;;;1.10;;
32932;SDS011;19444;50.518;10.870;2023-05-10T13:52:24;1.60;;;0.88;;
32932;SDS011;19444;50.518;10.870;2023-05-10T13:55:22;2.28;;;1.38;;
32932;SDS011;19444;50.518;10.870;2023-05-10T13:58:19;2.90;;;2.13;;
32932;SDS011;19444;50.518;10.870;2023-05-10T14:01:16;2.55;;;1.88;;
32932;SDS011;19444;50.518;10.870;2023-05-10T14:04:13;3.28;;;2.38;;
32932;SDS011;19444;50.518;10.870;2023-05-10T14:07:10;1.63;;;1.10;;
32932;SDS011;19444;50.518;10.870;2023-05-10T14:10:07;1.60;;;1.25;;
32932;SDS011;19444;50.518;10.870;2023-05-10T14:13:04;1.30;;;1.00;;
32932;SDS011;19444;50.518;10.870;2023-05-10T14:16:01;2.55;;;1.30;;
32932;SDS011;19444;50.518;10.870;2023-05-10T14:18:58;2.05;;;1.48;;
32932;SDS011;19444;50.518;10.870;2023-05-10T14:21:55;2.03;;;1.45;;
32932;SDS011;19444;50.518;10.870;2023-05-10T14:24:52;1.80;;;1.55;;
32932;SDS011;19444;50.518;10.870;2023-05-10T14:27:49;1.00;;;0.80;;
32932;SDS011;19444;50.518;10.870;2023-05-10T14:30:46;1.27;;;1.00;;
32932;SDS011;19444;50.518;10.870;2023-05-10T14:33:43;1.70;;;1.38;;
32932;SDS011;19444;50.518;10.870;2023-05-10T14:36:40;2.50;;;1.70;;
32932;SDS011;19444;50.518;10.870;2023-05-10T14:39:37;3.88;;;2.60;;
32932;SDS011;19444;50.518;10.870;2023-05-10T14:42:34;2.60;;;1.90;;
32932;SDS011;19444;50.518;10.870;2023-05-10T14:45:31;1.58;;;1.00;;
32932;SDS011;19444;50.518;10.870;2023-05-10T14:48:29;1.80;;;1.10;;
32932;SDS011;19444;50.518;10.870;2023-05-10T14:51:26;1.00;;;0.77;;
32932;SDS011;19444;50.518;10.870;2023-05-10T14:54:23;0.93;;;0.70;;
32932;SDS011;19444;50.518;10.870;2023-05-10T14:57:20;8.10;;;3.95;;
32932;SDS011;19444;50.518;10.870;2023-05-10T15:00:17;1.00;;;0.60;;
32932;SDS011;19444;50.518;10.870;2023-05-10T15:03:16;1.10;;;0.40;;
32932;SDS011;19444;50.518;10.870;2023-05-10T15:06:14;0.50;;;0.30;;
32932;SDS011;19444;50.518;10.870;2023-05-10T15:09:12;1.20;;;0.30;;
32932;SDS011;19444;50.518;10.870;2023-05-10T15:12:08;1.30;;;0.40;;
32932;SDS011;19444;50.518;10.870;2023-05-10T15:15:06;0.50;;;0.30;;
32932;SDS011;19444;50.518;10.870;2023-05-10T15:18:03;2.28;;;0.30;;
32932;SDS011;19444;50.518;10.870;2023-05-10T15:21:01;0.60;;;0.28;;
32932;SDS011;19444;50.518;10.870;2023-05-10T15:23:59;1.38;;;0.55;;
32932;SDS011;19444;50.518;10.870;2023-05-10T15:26:56;1.35;;;0.88;;
32932;SDS011;19444;50.518;10.870;2023-05-10T15:29:53;4.28;;;2.15;;
32932;SDS011;19444;50.518;10.870;2023-05-10T15:32:49;1.50;;;1.23;;
32932;SDS011;19444;50.518;10.870;2023-05-10T15:35:47;1.95;;;1.20;;
32932;SDS011;19444;50.518;10.870;2023-05-10T15:38:43;1.13;;;0.60;;
32932;SDS011;19444;50.518;10.870;2023-05-10T15:41:40;0.63;;;0.30;;
32932;SDS011;19444;50.518;10.870;2023-05-10T15:44:37;0.40;;;0.20;;
32932;SDS011;19444;50.518;10.870;2023-05-10T15:47:34;0.20;;;0.10;;
32932;SDS011;19444;50.518;10.870;2023-05-10T15:50:31;0.85;;;0.17;;
32932;SDS011;19444;50.518;10.870;2023-05-10T15:53:28;0.40;;;0.20;;
32932;SDS011;19444;50.518;10.870;2023-05-10T15:56:25;1.05;;;0.10;;
32932;SDS011;19444;50.518;10.870;2023-05-10T15:59:22;0.40;;;0.10;;
32932;SDS011;19444;50.518;10.870;2023-05-10T16:02:19;0.47;;;0.20;;
32932;SDS011;19444;50.518;10.870;2023-05-10T16:05:17;0.20;;;0.10;;
32932;SDS011;19444;50.518;10.870;2023-05-10T16:08:15;0.93;;;0.10;;
32932;SDS011;19444;50.518;10.870;2023-05-10T16:11:12;1.48;;;0.20;;
32932;SDS011;19444;50.518;10.870;2023-05-10T16:14:09;0.65;;;0.20;;
32932;SDS011;19444;50.518;10.870;2023-05-10T16:17:06;0.93;;;0.35;;
32932;SDS011;19444;50.518;10.870;2023-05-10T16:20:03;0.40;;;0.20;;
32932;SDS011;19444;50.518;10.870;2023-05-10T16:23:02;4.30;;;3.38;;
32932;SDS011;19444;50.518;10.870;2023-05-10T16:26:01;1.10;;;0.70;;
32932;SDS011;19444;50.518;10.870;2023-05-10T16:28:59;1.58;;;0.52;;
32932;SDS011;19444;50.518;10.870;2023-05-10T16:31:56;1.00;;;0.60;;
32932;SDS011;19444;50.518;10.870;2023-05-10T16:34:53;2.22;;;1.10;;
32932;SDS011;19444;50.518;10.870;2023-05-10T16:37:50;2.83;;;2.20;;
32932;SDS011;19444;50.518;10.870;2023-05-10T16:40:47;2.38;;;1.35;;
32932;SDS011;19444;50.518;10.870;2023-05-10T16:43:44;1.65;;;1.30;;
32932;SDS011;19444;50.518;10.870;2023-05-10T16:46:41;3.33;;;0.77;;
32932;SDS011;19444;50.518;10.870;2023-05-10T16:49:38;3.78;;;1.65;;
32932;SDS011;19444;50.518;10.870;2023-05-10T16:52:35;2.83;;;1.05;;
32932;SDS011;19444;50.518;10.870;2023-05-10T16:55:32;2.42;;;1.48;;
32932;SDS011;19444;50.518;10.870;2023-05-10T16:58:29;1.63;;;0.80;;
32932;SDS011;19444;50.518;10.870;2023-05-10T17:01:26;1.80;;;0.73;;
32932;SDS011;19444;50.518;10.870;2023-05-10T17:04:23;2.78;;;0.90;;
32932;SDS011;19444;50.518;10.870;2023-05-10T17:07:20;2.92;;;1.02;;
32932;SDS011;19444;50.518;10.870;2023-05-10T17:10:21;1.85;;;0.55;;
32932;SDS011;19444;50.518;10.870;2023-05-10T17:13:18;1.70;;;0.70;;
32932;SDS011;19444;50.518;10.870;2023-05-10T17:16:15;5.75;;;0.85;;
32932;SDS011;19444;50.518;10.870;2023-05-10T17:19:12;3.25;;;0.57;;
32932;SDS011;19444;50.518;10.870;2023-05-10T17:22:09;3.70;;;0.70;;
32932;SDS011;19444;50.518;10.870;2023-05-10T17:25:07;1.92;;;0.50;;
32932;SDS011;19444;50.518;10.870;2023-05-10T17:28:05;2.03;;;0.57;;
32932;SDS011;19444;50.518;10.870;2023-05-10T17:31:01;1.35;;;0.40;;
32932;SDS011;19444;50.518;10.870;2023-05-10T17:33:59;0.57;;;0.50;;
32932;SDS011;19444;50.518;10.870;2023-05-10T17:39:58;1.27;;;0.63;;
32932;SDS011;19444;50.518;10.870;2023-05-10T17:42:55;3.35;;;0.50;;
32932;SDS011;19444;50.518;10.870;2023-05-10T17:45:52;1.75;;;0.60;;
32932;SDS011;19444;50.518;10.870;2023-05-10T17:48:49;2.33;;;0.80;;
32932;SDS011;19444;50.518;10.870;2023-05-10T17:51:46;1.17;;;0.70;;
32932;SDS011;19444;50.518;10.870;2023-05-10T17:54:43;1.42;;;0.65;;
32932;SDS011;19444;50.518;10.870;2023-05-10T17:57:40;1.23;;;0.70;;
32932;SDS011;19444;50.518;10.870;2023-05-10T18:00:37;4.25;;;0.43;;
32932;SDS011;19444;50.518;10.870;2023-05-10T18:03:34;2.60;;;0.55;;
32932;SDS011;19444;50.518;10.870;2023-05-10T18:06:34;1.33;;;0.60;;
32932;SDS011;19444;50.518;10.870;2023-05-10T18:09:32;3.88;;;0.60;;
32932;SDS011;19444;50.518;10.870;2023-05-10T18:12:29;1.42;;;0.50;;
32932;SDS011;19444;50.518;10.870;2023-05-10T18:15:26;1.55;;;0.55;;